sensor_id;sensor_type;location;lat;lon;timestamp;P1;durP1;ratioP1;P2;durP2;ratioP2
10110;SDS011;5095;49.796;9.934;2022-10-23T00:01:45;6.60;;;4.00;;
10110;SDS011;5095;49.796;9.934;2022-10-23T00:04:12;6.87;;;3.10;;
10110;SDS011;5095;49.796;9.934;2022-10-23T00:06:39;6.20;;;3.13;;
10110;SDS011;5095;49.796;9.934;2022-10-23T00:09:06;6.47;;;2.97;;
10110;SDS011;5095;49.796;9.934;2022-10-23T00:11:32;6.33;;;3.27;;
10110;SDS011;5095;49.796;9.934;2022-10-23T00:13:59;10.40;;;3.63;;
10110;SDS011;5095;49.796;9.934;2022-10-23T00:16:26;6.77;;;3.07;;
10110;SDS011;5095;49.796;9.934;2022-10-23T00:18:52;6.53;;;3.00;;
10110;SDS011;5095;49.796;9.934;2022-10-23T00:21:18;4.73;;;2.90;;
10110;SDS011;5095;49.796;9.934;2022-10-23T00:23:44;7.77;;;3.03;;
10110;SDS011;5095;49.796;9.934;2022-10-23T00:26:10;5.10;;;2.77;;
10110;SDS011;5095;49.796;9.934;2022-10-23T00:28:39;6.87;;;3.00;;
10110;SDS011;5095;49.796;9.934;2022-10-23T00:31:06;4.20;;;2.87;;
10110;SDS011;5095;49.796;9.934;2022-10-23T00:33:32;4.67;;;3.07;;
10110;SDS011;5095;49.796;9.934;2022-10-23T00:35:58;5.90;;;3.00;;
10110;SDS011;5095;49.796;9.934;2022-10-23T00:38:24;6.17;;;2.97;;
10110;SDS011;5095;49.796;9.934;2022-10-23T00:40:50;4.83;;;3.00;;
10110;SDS011;5095;49.796;9.934;2022-10-23T00:43:21;7.23;;;3.30;;
10110;SDS011;5095;49.796;9.934;2022-10-23T00:45:47;4.60;;;3.03;;
10110;SDS011;5095;49.796;9.934;2022-10-23T00:48:13;7.37;;;2.90;;
10110;SDS011;5095;49.796;9.934;2022-10-23T00:50:39;5.20;;;2.80;;
10110;SDS011;5095;49.796;9.934;2022-10-23T00:53:06;7.63;;;3.43;;
10110;SDS011;5095;49.796;9.934;2022-10-23T00:55:32;5.90;;;3.00;;
10110;SDS011;5095;49.796;9.934;2022-10-23T00:57:58;5.37;;;2.93;;
10110;SDS011;5095;49.796;9.934;2022-10-23T01:00:29;7.13;;;3.00;;
10110;SDS011;5095;49.796;9.934;2022-10-23T01:02:56;6.17;;;3.70;;
10110;SDS011;5095;49.796;9.934;2022-10-23T01:05:26;4.37;;;2.90;;
10110;SDS011;5095;49.796;9.934;2022-10-23T01:07:55;4.30;;;2.77;;
10110;SDS011;5095;49.796;9.934;2022-10-23T01:13:11;5.67;;;3.00;;
10110;SDS011;5095;49.796;9.934;2022-10-23T01:15:43;7.50;;;2.87;;
10110;SDS011;5095;49.796;9.934;2022-10-23T01:21:07;4.30;;;2.90;;
10110;SDS011;5095;49.796;9.934;2022-10-23T01:23:38;4.70;;;2.50;;
10110;SDS011;5095;49.796;9.934;2022-10-23T01:28:54;6.07;;;3.10;;
10110;SDS011;5095;49.796;9.934;2022-10-23T01:31:33;6.73;;;3.80;;
10110;SDS011;5095;49.796;9.934;2022-10-23T01:34:07;6.00;;;3.23;;
10110;SDS011;5095;49.796;9.934;2022-10-23T01:36:35;5.67;;;3.40;;
10110;SDS011;5095;49.796;9.934;2022-10-23T01:39:06;5.33;;;3.40;;
10110;SDS011;5095;49.796;9.934;2022-10-23T01:46:28;4.90;;;3.03;;
10110;SDS011;5095;49.796;9.934;2022-10-23T01:48:55;6.93;;;2.80;;
10110;SDS011;5095;49.796;9.934;2022-10-23T01:51:23;3.23;;;2.47;;
10110;SDS011;5095;49.796;9.934;2022-10-23T01:53:51;6.30;;;2.47;;
10110;SDS011;5095;49.796;9.934;2022-10-23T01:56:18;4.40;;;2.50;;
10110;SDS011;5095;49.796;9.934;2022-10-23T01:58:46;6.47;;;3.03;;
10110;SDS011;5095;49.796;9.934;2022-10-23T02:01:13;6.10;;;2.90;;
10110;SDS011;5095;49.796;9.934;2022-10-23T02:03:40;6.67;;;3.23;;
10110;SDS011;5095;49.796;9.934;2022-10-23T02:06:07;5.60;;;3.30;;
10110;SDS011;5095;49.796;9.934;2022-10-23T02:08:33;6.57;;;3.50;;
10110;SDS011;5095;49.796;9.934;2022-10-23T02:11:00;6.30;;;3.50;;
10110;SDS011;5095;49.796;9.934;2022-10-23T02:18:36;5.70;;;3.37;;
10110;SDS011;5095;49.796;9.934;2022-10-23T02:21:09;7.53;;;3.80;;
10110;SDS011;5095;49.796;9.934;2022-10-23T02:23:37;7.77;;;3.80;;
10110;SDS011;5095;49.796;9.934;2022-10-23T02:26:18;7.27;;;4.07;;
10110;SDS011;5095;49.796;9.934;2022-10-23T02:28:49;7.67;;;3.87;;
10110;SDS011;5095;49.796;9.934;2022-10-23T02:31:17;5.30;;;3.43;;
10110;SDS011;5095;49.796;9.934;2022-10-23T02:33:44;7.33;;;4.30;;
10110;SDS011;5095;49.796;9.934;2022-10-23T02:36:11;9.63;;;4.20;;
10110;SDS011;5095;49.796;9.934;2022-10-23T02:38:38;7.50;;;4.07;;
10110;SDS011;5095;49.796;9.934;2022-10-23T02:41:11;8.20;;;4.80;;
10110;SDS011;5095;49.796;9.934;2022-10-23T02:43:40;8.40;;;4.77;;
10110;SDS011;5095;49.796;9.934;2022-10-23T02:48:59;13.03;;;5.23;;
10110;SDS011;5095;49.796;9.934;2022-10-23T02:51:34;9.00;;;5.00;;
10110;SDS011;5095;49.796;9.934;2022-10-23T02:56:38;11.13;;;4.97;;
10110;SDS011;5095;49.796;9.934;2022-10-23T03:01:52;8.13;;;5.03;;
10110;SDS011;5095;49.796;9.934;2022-10-23T03:04:20;11.80;;;5.53;;
10110;SDS011;5095;49.796;9.934;2022-10-23T03:06:48;11.00;;;4.80;;
10110;SDS011;5095;49.796;9.934;2022-10-23T03:09:15;11.23;;;5.50;;
10110;SDS011;5095;49.796;9.934;2022-10-23T03:11:41;8.37;;;5.17;;
10110;SDS011;5095;49.796;9.934;2022-10-23T03:14:07;11.13;;;5.70;;
10110;SDS011;5095;49.796;9.934;2022-10-23T03:16:33;15.27;;;6.10;;
10110;SDS011;5095;49.796;9.934;2022-10-23T03:18:59;12.20;;;5.63;;
10110;SDS011;5095;49.796;9.934;2022-10-23T03:21:25;11.97;;;5.40;;
10110;SDS011;5095;49.796;9.934;2022-10-23T03:23:51;8.83;;;5.30;;
10110;SDS011;5095;49.796;9.934;2022-10-23T03:26:17;9.27;;;5.60;;
10110;SDS011;5095;49.796;9.934;2022-10-23T03:28:43;7.80;;;5.17;;
10110;SDS011;5095;49.796;9.934;2022-10-23T03:31:09;8.83;;;4.33;;
10110;SDS011;5095;49.796;9.934;2022-10-23T03:33:35;15.53;;;4.40;;
10110;SDS011;5095;49.796;9.934;2022-10-23T03:36:01;8.90;;;4.67;;
10110;SDS011;5095;49.796;9.934;2022-10-23T03:38:27;14.77;;;4.80;;
10110;SDS011;5095;49.796;9.934;2022-10-23T03:40:53;12.33;;;4.80;;
10110;SDS011;5095;49.796;9.934;2022-10-23T03:43:19;12.70;;;4.60;;
10110;SDS011;5095;49.796;9.934;2022-10-23T03:45:45;7.03;;;4.17;;
10110;SDS011;5095;49.796;9.934;2022-10-23T03:48:11;11.10;;;4.90;;
10110;SDS011;5095;49.796;9.934;2022-10-23T03:50:38;7.00;;;4.30;;
10110;SDS011;5095;49.796;9.934;2022-10-23T03:53:04;7.30;;;4.50;;
10110;SDS011;5095;49.796;9.934;2022-10-23T03:55:30;8.50;;;4.03;;
10110;SDS011;5095;49.796;9.934;2022-10-23T03:57:56;10.30;;;4.37;;
10110;SDS011;5095;49.796;9.934;2022-10-23T04:00:22;8.00;;;3.90;;
10110;SDS011;5095;49.796;9.934;2022-10-23T04:02:48;9.00;;;4.90;;
10110;SDS011;5095;49.796;9.934;2022-10-23T04:05:14;9.13;;;4.10;;
10110;SDS011;5095;49.796;9.934;2022-10-23T04:07:40;6.33;;;3.90;;
10110;SDS011;5095;49.796;9.934;2022-10-23T04:10:06;9.73;;;3.53;;
10110;SDS011;5095;49.796;9.934;2022-10-23T04:12:33;8.40;;;3.63;;
10110;SDS011;5095;49.796;9.934;2022-10-23T04:14:59;8.90;;;4.03;;
10110;SDS011;5095;49.796;9.934;2022-10-23T04:17:25;11.90;;;4.67;;
10110;SDS011;5095;49.796;9.934;2022-10-23T04:19:51;5.77;;;3.43;;
10110;SDS011;5095;49.796;9.934;2022-10-23T04:22:17;5.23;;;3.70;;
10110;SDS011;5095;49.796;9.934;2022-10-23T04:24:43;6.70;;;3.57;;
10110;SDS011;5095;49.796;9.934;2022-10-23T04:27:11;4.23;;;3.17;;
10110;SDS011;5095;49.796;9.934;2022-10-23T04:29:37;7.53;;;3.80;;
10110;SDS011;5095;49.796;9.934;2022-10-23T04:32:03;5.80;;;3.50;;
10110;SDS011;5095;49.796;9.934;2022-10-23T04:34:29;7.60;;;3.43;;
10110;SDS011;5095;49.796;9.934;2022-10-23T04:36:55;5.83;;;3.40;;
10110;SDS011;5095;49.796;9.934;2022-10-23T04:39:21;4.63;;;3.00;;
10110;SDS011;5095;49.796;9.934;2022-10-23T04:41:47;5.13;;;3.30;;
10110;SDS011;5095;49.796;9.934;2022-10-23T04:44:13;7.37;;;3.17;;
10110;SDS011;5095;49.796;9.934;2022-10-23T04:46:39;4.33;;;2.90;;
10110;SDS011;5095;49.796;9.934;2022-10-23T04:49:05;4.33;;;3.10;;
10110;SDS011;5095;49.796;9.934;2022-10-23T04:51:31;8.20;;;3.03;;
10110;SDS011;5095;49.796;9.934;2022-10-23T04:53:56;9.60;;;3.10;;
10110;SDS011;5095;49.796;9.934;2022-10-23T04:56:23;3.73;;;2.87;;
10110;SDS011;5095;49.796;9.934;2022-10-23T04:58:48;5.50;;;2.70;;
10110;SDS011;5095;49.796;9.934;2022-10-23T05:01:16;5.57;;;3.10;;
10110;SDS011;5095;49.796;9.934;2022-10-23T05:03:42;5.67;;;3.10;;
10110;SDS011;5095;49.796;9.934;2022-10-23T05:06:08;4.00;;;2.67;;
10110;SDS011;5095;49.796;9.934;2022-10-23T05:08:34;5.13;;;3.50;;
10110;SDS011;5095;49.796;9.934;2022-10-23T05:11:00;5.97;;;3.17;;
10110;SDS011;5095;49.796;9.934;2022-10-23T05:13:26;3.73;;;2.87;;
10110;SDS011;5095;49.796;9.934;2022-10-23T05:15:52;4.60;;;2.93;;
10110;SDS011;5095;49.796;9.934;2022-10-23T05:20:51;4.73;;;2.80;;
10110;SDS011;5095;49.796;9.934;2022-10-23T05:23:19;12.40;;;3.07;;
10110;SDS011;5095;49.796;9.934;2022-10-23T05:25:47;3.37;;;2.73;;
10110;SDS011;5095;49.796;9.934;2022-10-23T05:28:12;6.50;;;2.83;;
10110;SDS011;5095;49.796;9.934;2022-10-23T05:30:38;4.23;;;3.03;;
10110;SDS011;5095;49.796;9.934;2022-10-23T05:33:04;4.60;;;3.03;;
10110;SDS011;5095;49.796;9.934;2022-10-23T05:35:31;3.23;;;2.70;;
10110;SDS011;5095;49.796;9.934;2022-10-23T05:37:58;4.50;;;2.93;;
10110;SDS011;5095;49.796;9.934;2022-10-23T05:40:24;11.43;;;3.13;;
10110;SDS011;5095;49.796;9.934;2022-10-23T05:42:51;5.87;;;2.70;;
10110;SDS011;5095;49.796;9.934;2022-10-23T05:45:17;8.00;;;3.23;;
10110;SDS011;5095;49.796;9.934;2022-10-23T05:47:43;6.47;;;2.97;;
10110;SDS011;5095;49.796;9.934;2022-10-23T05:50:09;3.33;;;2.70;;
10110;SDS011;5095;49.796;9.934;2022-10-23T05:52:36;4.43;;;2.73;;
10110;SDS011;5095;49.796;9.934;2022-10-23T05:55:02;3.53;;;2.47;;
10110;SDS011;5095;49.796;9.934;2022-10-23T05:57:30;4.33;;;2.97;;
10110;SDS011;5095;49.796;9.934;2022-10-23T05:59:56;5.10;;;2.97;;
10110;SDS011;5095;49.796;9.934;2022-10-23T06:02:22;3.80;;;2.73;;
10110;SDS011;5095;49.796;9.934;2022-10-23T06:04:48;3.57;;;2.70;;
10110;SDS011;5095;49.796;9.934;2022-10-23T06:07:14;4.40;;;2.60;;
10110;SDS011;5095;49.796;9.934;2022-10-23T06:09:40;3.77;;;2.73;;
10110;SDS011;5095;49.796;9.934;2022-10-23T06:12:06;3.63;;;2.70;;
10110;SDS011;5095;49.796;9.934;2022-10-23T06:14:32;3.30;;;2.77;;
10110;SDS011;5095;49.796;9.934;2022-10-23T06:16:58;5.53;;;3.53;;
10110;SDS011;5095;49.796;9.934;2022-10-23T06:19:24;5.50;;;3.07;;
10110;SDS011;5095;49.796;9.934;2022-10-23T06:21:50;4.97;;;3.17;;
10110;SDS011;5095;49.796;9.934;2022-10-23T06:24:16;5.10;;;3.10;;
10110;SDS011;5095;49.796;9.934;2022-10-23T06:26:42;4.20;;;2.73;;
10110;SDS011;5095;49.796;9.934;2022-10-23T06:29:09;3.90;;;2.90;;
10110;SDS011;5095;49.796;9.934;2022-10-23T06:31:35;4.10;;;3.00;;
10110;SDS011;5095;49.796;9.934;2022-10-23T06:34:01;3.93;;;3.00;;
10110;SDS011;5095;49.796;9.934;2022-10-23T06:36:27;5.47;;;3.30;;
10110;SDS011;5095;49.796;9.934;2022-10-23T06:38:53;4.93;;;3.10;;
10110;SDS011;5095;49.796;9.934;2022-10-23T06:41:20;5.87;;;3.00;;
10110;SDS011;5095;49.796;9.934;2022-10-23T06:43:47;5.10;;;3.37;;
10110;SDS011;5095;49.796;9.934;2022-10-23T06:46:13;5.77;;;3.57;;
10110;SDS011;5095;49.796;9.934;2022-10-23T06:48:40;3.97;;;2.80;;
10110;SDS011;5095;49.796;9.934;2022-10-23T06:51:07;5.83;;;3.00;;
10110;SDS011;5095;49.796;9.934;2022-10-23T06:53:33;4.47;;;3.00;;
10110;SDS011;5095;49.796;9.934;2022-10-23T06:56:00;4.63;;;3.23;;
10110;SDS011;5095;49.796;9.934;2022-10-23T06:58:26;4.13;;;2.83;;
10110;SDS011;5095;49.796;9.934;2022-10-23T07:00:52;4.97;;;3.20;;
10110;SDS011;5095;49.796;9.934;2022-10-23T07:03:18;3.97;;;2.77;;
10110;SDS011;5095;49.796;9.934;2022-10-23T07:05:44;4.53;;;2.80;;
10110;SDS011;5095;49.796;9.934;2022-10-23T07:08:11;4.53;;;2.77;;
10110;SDS011;5095;49.796;9.934;2022-10-23T07:10:37;3.73;;;2.97;;
10110;SDS011;5095;49.796;9.934;2022-10-23T07:13:07;4.20;;;2.77;;
10110;SDS011;5095;49.796;9.934;2022-10-23T07:15:33;4.03;;;3.17;;
10110;SDS011;5095;49.796;9.934;2022-10-23T07:17:59;3.87;;;2.83;;
10110;SDS011;5095;49.796;9.934;2022-10-23T07:20:25;3.73;;;2.50;;
10110;SDS011;5095;49.796;9.934;2022-10-23T07:22:54;4.07;;;2.80;;
10110;SDS011;5095;49.796;9.934;2022-10-23T07:25:21;4.83;;;2.50;;
10110;SDS011;5095;49.796;9.934;2022-10-23T07:27:48;3.43;;;2.90;;
10110;SDS011;5095;49.796;9.934;2022-10-23T07:30:14;3.90;;;2.90;;
10110;SDS011;5095;49.796;9.934;2022-10-23T07:32:40;5.97;;;2.90;;
10110;SDS011;5095;49.796;9.934;2022-10-23T07:35:07;3.03;;;2.73;;
10110;SDS011;5095;49.796;9.934;2022-10-23T07:37:34;3.23;;;2.33;;
10110;SDS011;5095;49.796;9.934;2022-10-23T07:40:00;3.70;;;2.70;;
10110;SDS011;5095;49.796;9.934;2022-10-23T07:42:26;4.10;;;3.00;;
10110;SDS011;5095;49.796;9.934;2022-10-23T07:44:52;5.60;;;2.67;;
10110;SDS011;5095;49.796;9.934;2022-10-23T07:47:18;5.27;;;2.87;;
10110;SDS011;5095;49.796;9.934;2022-10-23T07:49:45;3.17;;;2.80;;
10110;SDS011;5095;49.796;9.934;2022-10-23T07:52:11;3.60;;;2.60;;
10110;SDS011;5095;49.796;9.934;2022-10-23T07:54:37;5.37;;;3.30;;
10110;SDS011;5095;49.796;9.934;2022-10-23T07:57:03;4.03;;;3.07;;
10110;SDS011;5095;49.796;9.934;2022-10-23T07:59:31;3.40;;;2.60;;
10110;SDS011;5095;49.796;9.934;2022-10-23T08:01:57;3.90;;;2.67;;
10110;SDS011;5095;49.796;9.934;2022-10-23T08:04:23;4.77;;;3.80;;
10110;SDS011;5095;49.796;9.934;2022-10-23T08:06:49;4.93;;;3.40;;
10110;SDS011;5095;49.796;9.934;2022-10-23T08:09:15;4.37;;;3.30;;
10110;SDS011;5095;49.796;9.934;2022-10-23T08:11:41;4.23;;;3.37;;
10110;SDS011;5095;49.796;9.934;2022-10-23T08:14:08;4.07;;;3.47;;
10110;SDS011;5095;49.796;9.934;2022-10-23T08:16:34;4.80;;;3.30;;
10110;SDS011;5095;49.796;9.934;2022-10-23T08:19:01;3.90;;;3.47;;
10110;SDS011;5095;49.796;9.934;2022-10-23T08:21:27;5.07;;;3.47;;
10110;SDS011;5095;49.796;9.934;2022-10-23T08:23:53;4.37;;;3.20;;
10110;SDS011;5095;49.796;9.934;2022-10-23T08:26:20;5.23;;;3.27;;
10110;SDS011;5095;49.796;9.934;2022-10-23T08:28:46;4.90;;;3.33;;
10110;SDS011;5095;49.796;9.934;2022-10-23T08:31:13;4.17;;;3.30;;
10110;SDS011;5095;49.796;9.934;2022-10-23T08:33:39;5.53;;;3.40;;
10110;SDS011;5095;49.796;9.934;2022-10-23T08:36:12;5.37;;;3.10;;
10110;SDS011;5095;49.796;9.934;2022-10-23T08:38:40;4.30;;;3.30;;
10110;SDS011;5095;49.796;9.934;2022-10-23T08:41:12;5.27;;;3.40;;
10110;SDS011;5095;49.796;9.934;2022-10-23T08:43:41;5.23;;;3.50;;
10110;SDS011;5095;49.796;9.934;2022-10-23T08:46:09;5.43;;;3.43;;
10110;SDS011;5095;49.796;9.934;2022-10-23T08:48:38;5.97;;;3.83;;
10110;SDS011;5095;49.796;9.934;2022-10-23T08:51:15;3.53;;;3.00;;
10110;SDS011;5095;49.796;9.934;2022-10-23T08:53:48;4.87;;;3.50;;
10110;SDS011;5095;49.796;9.934;2022-10-23T08:56:26;5.47;;;3.40;;
10110;SDS011;5095;49.796;9.934;2022-10-23T08:58:57;6.30;;;3.90;;
10110;SDS011;5095;49.796;9.934;2022-10-23T09:01:45;4.43;;;3.87;;
10110;SDS011;5095;49.796;9.934;2022-10-23T09:04:12;5.20;;;3.67;;
10110;SDS011;5095;49.796;9.934;2022-10-23T09:06:45;4.10;;;3.27;;
10110;SDS011;5095;49.796;9.934;2022-10-23T09:09:28;4.90;;;3.60;;
10110;SDS011;5095;49.796;9.934;2022-10-23T09:12:02;4.53;;;3.40;;
10110;SDS011;5095;49.796;9.934;2022-10-23T09:14:35;4.90;;;3.37;;
10110;SDS011;5095;49.796;9.934;2022-10-23T09:19:34;4.50;;;3.47;;
10110;SDS011;5095;49.796;9.934;2022-10-23T09:22:00;4.43;;;3.40;;
10110;SDS011;5095;49.796;9.934;2022-10-23T09:24:26;4.73;;;3.30;;
10110;SDS011;5095;49.796;9.934;2022-10-23T09:26:56;3.97;;;3.33;;
10110;SDS011;5095;49.796;9.934;2022-10-23T09:29:26;3.37;;;3.00;;
10110;SDS011;5095;49.796;9.934;2022-10-23T09:31:54;4.60;;;2.90;;
10110;SDS011;5095;49.796;9.934;2022-10-23T09:34:22;3.97;;;3.13;;
10110;SDS011;5095;49.796;9.934;2022-10-23T09:36:49;3.70;;;3.00;;
10110;SDS011;5095;49.796;9.934;2022-10-23T09:39:23;5.53;;;3.10;;
10110;SDS011;5095;49.796;9.934;2022-10-23T09:41:49;3.67;;;2.70;;
10110;SDS011;5095;49.796;9.934;2022-10-23T09:46:54;5.90;;;3.00;;
10110;SDS011;5095;49.796;9.934;2022-10-23T09:49:22;4.50;;;2.80;;
10110;SDS011;5095;49.796;9.934;2022-10-23T09:54:17;3.90;;;2.80;;
10110;SDS011;5095;49.796;9.934;2022-10-23T09:56:46;5.00;;;2.90;;
10110;SDS011;5095;49.796;9.934;2022-10-23T10:01:46;8.17;;;3.63;;
10110;SDS011;5095;49.796;9.934;2022-10-23T10:04:12;4.63;;;2.93;;
10110;SDS011;5095;49.796;9.934;2022-10-23T10:06:38;5.70;;;3.30;;
10110;SDS011;5095;49.796;9.934;2022-10-23T10:09:06;3.77;;;3.03;;
10110;SDS011;5095;49.796;9.934;2022-10-23T10:11:37;3.83;;;2.50;;
10110;SDS011;5095;49.796;9.934;2022-10-23T10:21:49;2.30;;;1.83;;
10110;SDS011;5095;49.796;9.934;2022-10-23T10:24:22;2.00;;;1.70;;
10110;SDS011;5095;49.796;9.934;2022-10-23T10:40:00;3.10;;;1.60;;
10110;SDS011;5095;49.796;9.934;2022-10-23T10:50:05;2.17;;;1.30;;
10110;SDS011;5095;49.796;9.934;2022-10-23T10:52:40;2.87;;;1.93;;
10110;SDS011;5095;49.796;9.934;2022-10-23T10:57:56;3.97;;;1.47;;
10110;SDS011;5095;49.796;9.934;2022-10-23T11:00:23;3.97;;;2.30;;
10110;SDS011;5095;49.796;9.934;2022-10-23T11:02:52;1.83;;;1.50;;
10110;SDS011;5095;49.796;9.934;2022-10-23T11:05:31;3.43;;;1.40;;
10110;SDS011;5095;49.796;9.934;2022-10-23T11:07:59;1.90;;;1.40;;
10110;SDS011;5095;49.796;9.934;2022-10-23T11:10:28;1.67;;;1.30;;
10110;SDS011;5095;49.796;9.934;2022-10-23T11:12:54;2.27;;;1.50;;
10110;SDS011;5095;49.796;9.934;2022-10-23T11:15:26;3.17;;;1.43;;
10110;SDS011;5095;49.796;9.934;2022-10-23T11:17:54;3.40;;;1.53;;
10110;SDS011;5095;49.796;9.934;2022-10-23T11:20:28;3.33;;;1.47;;
10110;SDS011;5095;49.796;9.934;2022-10-23T11:38:32;2.47;;;1.50;;
10110;SDS011;5095;49.796;9.934;2022-10-23T11:41:00;1.90;;;1.20;;
10110;SDS011;5095;49.796;9.934;2022-10-23T11:45:53;1.57;;;1.30;;
10110;SDS011;5095;49.796;9.934;2022-10-23T11:48:20;3.73;;;1.50;;
10110;SDS011;5095;49.796;9.934;2022-10-23T11:53:27;2.17;;;1.53;;
10110;SDS011;5095;49.796;9.934;2022-10-23T11:56:03;1.73;;;1.40;;
10110;SDS011;5095;49.796;9.934;2022-10-23T12:01:15;1.50;;;1.40;;
10110;SDS011;5095;49.796;9.934;2022-10-23T12:06:26;1.60;;;1.37;;
10110;SDS011;5095;49.796;9.934;2022-10-23T12:08:54;2.43;;;1.50;;
10110;SDS011;5095;49.796;9.934;2022-10-23T12:11:23;2.03;;;1.43;;
10110;SDS011;5095;49.796;9.934;2022-10-23T12:13:49;2.40;;;1.53;;
10110;SDS011;5095;49.796;9.934;2022-10-23T12:16:15;1.63;;;1.33;;
10110;SDS011;5095;49.796;9.934;2022-10-23T12:21:12;1.40;;;1.30;;
10110;SDS011;5095;49.796;9.934;2022-10-23T12:28:57;3.00;;;1.50;;
10110;SDS011;5095;49.796;9.934;2022-10-23T12:34:22;1.60;;;1.37;;
10110;SDS011;5095;49.796;9.934;2022-10-23T12:39:35;2.53;;;1.20;;
10110;SDS011;5095;49.796;9.934;2022-10-23T12:42:03;6.00;;;2.03;;
10110;SDS011;5095;49.796;9.934;2022-10-23T12:44:29;1.87;;;1.40;;
10110;SDS011;5095;49.796;9.934;2022-10-23T12:46:56;2.40;;;1.50;;
10110;SDS011;5095;49.796;9.934;2022-10-23T12:49:24;1.50;;;1.40;;
10110;SDS011;5095;49.796;9.934;2022-10-23T12:51:54;1.53;;;1.40;;
10110;SDS011;5095;49.796;9.934;2022-10-23T12:54:20;3.60;;;1.53;;
10110;SDS011;5095;49.796;9.934;2022-10-23T12:56:47;2.30;;;1.53;;
10110;SDS011;5095;49.796;9.934;2022-10-23T12:59:17;2.80;;;2.33;;
10110;SDS011;5095;49.796;9.934;2022-10-23T13:01:43;2.17;;;1.47;;
10110;SDS011;5095;49.796;9.934;2022-10-23T13:06:36;1.53;;;1.27;;
10110;SDS011;5095;49.796;9.934;2022-10-23T13:09:03;2.60;;;1.57;;
10110;SDS011;5095;49.796;9.934;2022-10-23T13:11:29;2.30;;;1.43;;
10110;SDS011;5095;49.796;9.934;2022-10-23T13:13:56;2.13;;;1.43;;
10110;SDS011;5095;49.796;9.934;2022-10-23T13:16:22;2.23;;;1.57;;
10110;SDS011;5095;49.796;9.934;2022-10-23T13:18:49;2.10;;;1.50;;
10110;SDS011;5095;49.796;9.934;2022-10-23T13:21:20;3.17;;;1.83;;
10110;SDS011;5095;49.796;9.934;2022-10-23T13:23:46;2.33;;;1.70;;
10110;SDS011;5095;49.796;9.934;2022-10-23T13:26:23;2.57;;;1.40;;
10110;SDS011;5095;49.796;9.934;2022-10-23T13:28:50;3.13;;;1.57;;
10110;SDS011;5095;49.796;9.934;2022-10-23T13:33:43;2.27;;;1.73;;
10110;SDS011;5095;49.796;9.934;2022-10-23T13:38:45;2.97;;;1.87;;
10110;SDS011;5095;49.796;9.934;2022-10-23T13:41:13;1.57;;;1.40;;
10110;SDS011;5095;49.796;9.934;2022-10-23T13:43:39;4.83;;;1.70;;
10110;SDS011;5095;49.796;9.934;2022-10-23T13:46:10;1.70;;;1.60;;
10110;SDS011;5095;49.796;9.934;2022-10-23T13:48:37;2.27;;;1.40;;
10110;SDS011;5095;49.796;9.934;2022-10-23T13:51:21;4.20;;;1.70;;
10110;SDS011;5095;49.796;9.934;2022-10-23T13:53:48;2.43;;;1.33;;
10110;SDS011;5095;49.796;9.934;2022-10-23T13:56:15;1.70;;;1.30;;
10110;SDS011;5095;49.796;9.934;2022-10-23T13:58:42;3.47;;;1.60;;
10110;SDS011;5095;49.796;9.934;2022-10-23T14:01:31;1.93;;;1.33;;
10110;SDS011;5095;49.796;9.934;2022-10-23T14:03:55;2.03;;;1.50;;
10110;SDS011;5095;49.796;9.934;2022-10-23T14:06:21;2.00;;;1.40;;
10110;SDS011;5095;49.796;9.934;2022-10-23T14:08:47;3.13;;;1.53;;
10110;SDS011;5095;49.796;9.934;2022-10-23T14:11:14;2.17;;;1.47;;
10110;SDS011;5095;49.796;9.934;2022-10-23T14:13:40;2.00;;;1.60;;
10110;SDS011;5095;49.796;9.934;2022-10-23T14:16:06;2.60;;;1.73;;
10110;SDS011;5095;49.796;9.934;2022-10-23T14:18:33;2.10;;;1.67;;
10110;SDS011;5095;49.796;9.934;2022-10-23T14:21:00;4.87;;;1.53;;
10110;SDS011;5095;49.796;9.934;2022-10-23T14:23:26;4.17;;;1.90;;
10110;SDS011;5095;49.796;9.934;2022-10-23T14:25:52;3.73;;;1.73;;
10110;SDS011;5095;49.796;9.934;2022-10-23T14:28:18;2.43;;;1.70;;
10110;SDS011;5095;49.796;9.934;2022-10-23T14:30:44;3.80;;;1.90;;
10110;SDS011;5095;49.796;9.934;2022-10-23T14:33:10;3.43;;;2.17;;
10110;SDS011;5095;49.796;9.934;2022-10-23T14:35:39;2.20;;;1.70;;
10110;SDS011;5095;49.796;9.934;2022-10-23T14:38:07;3.67;;;1.50;;
10110;SDS011;5095;49.796;9.934;2022-10-23T14:40:35;3.57;;;1.43;;
10110;SDS011;5095;49.796;9.934;2022-10-23T14:43:02;4.03;;;1.80;;
10110;SDS011;5095;49.796;9.934;2022-10-23T14:45:28;3.03;;;1.47;;
10110;SDS011;5095;49.796;9.934;2022-10-23T14:47:54;2.97;;;1.43;;
10110;SDS011;5095;49.796;9.934;2022-10-23T14:50:20;3.13;;;1.70;;
10110;SDS011;5095;49.796;9.934;2022-10-23T14:52:46;3.57;;;1.77;;
10110;SDS011;5095;49.796;9.934;2022-10-23T14:55:12;2.73;;;1.60;;
10110;SDS011;5095;49.796;9.934;2022-10-23T14:57:38;3.43;;;1.80;;
10110;SDS011;5095;49.796;9.934;2022-10-23T15:00:05;2.33;;;1.80;;
10110;SDS011;5095;49.796;9.934;2022-10-23T15:02:31;2.17;;;1.60;;
10110;SDS011;5095;49.796;9.934;2022-10-23T15:04:57;2.27;;;1.37;;
10110;SDS011;5095;49.796;9.934;2022-10-23T15:07:23;2.63;;;1.70;;
10110;SDS011;5095;49.796;9.934;2022-10-23T15:09:49;3.80;;;1.53;;
10110;SDS011;5095;49.796;9.934;2022-10-23T15:12:16;3.53;;;1.60;;
10110;SDS011;5095;49.796;9.934;2022-10-23T15:14:42;1.90;;;1.67;;
10110;SDS011;5095;49.796;9.934;2022-10-23T15:17:08;1.97;;;1.40;;
10110;SDS011;5095;49.796;9.934;2022-10-23T15:19:34;1.83;;;1.40;;
10110;SDS011;5095;49.796;9.934;2022-10-23T15:22:00;1.50;;;1.20;;
10110;SDS011;5095;49.796;9.934;2022-10-23T15:24:26;1.67;;;1.40;;
10110;SDS011;5095;49.796;9.934;2022-10-23T15:26:52;2.60;;;1.50;;
10110;SDS011;5095;49.796;9.934;2022-10-23T15:29:18;1.63;;;1.40;;
10110;SDS011;5095;49.796;9.934;2022-10-23T15:31:52;2.50;;;1.60;;
10110;SDS011;5095;49.796;9.934;2022-10-23T15:34:19;2.40;;;1.50;;
10110;SDS011;5095;49.796;9.934;2022-10-23T15:36:46;1.97;;;1.70;;
10110;SDS011;5095;49.796;9.934;2022-10-23T15:39:13;2.93;;;1.70;;
10110;SDS011;5095;49.796;9.934;2022-10-23T15:41:40;2.17;;;1.33;;
10110;SDS011;5095;49.796;9.934;2022-10-23T15:44:07;3.67;;;1.63;;
10110;SDS011;5095;49.796;9.934;2022-10-23T15:46:34;2.03;;;1.40;;
10110;SDS011;5095;49.796;9.934;2022-10-23T15:49:00;2.17;;;1.90;;
10110;SDS011;5095;49.796;9.934;2022-10-23T15:51:26;2.33;;;1.83;;
10110;SDS011;5095;49.796;9.934;2022-10-23T15:53:52;3.10;;;2.07;;
10110;SDS011;5095;49.796;9.934;2022-10-23T15:56:20;2.27;;;1.57;;
10110;SDS011;5095;49.796;9.934;2022-10-23T15:58:46;2.70;;;1.97;;
10110;SDS011;5095;49.796;9.934;2022-10-23T16:01:12;1.60;;;1.27;;
10110;SDS011;5095;49.796;9.934;2022-10-23T16:03:38;3.30;;;1.63;;
10110;SDS011;5095;49.796;9.934;2022-10-23T16:06:05;2.83;;;1.73;;
10110;SDS011;5095;49.796;9.934;2022-10-23T16:08:31;3.10;;;1.90;;
10110;SDS011;5095;49.796;9.934;2022-10-23T16:10:57;2.87;;;1.50;;
10110;SDS011;5095;49.796;9.934;2022-10-23T16:13:24;3.27;;;1.50;;
10110;SDS011;5095;49.796;9.934;2022-10-23T16:15:50;3.70;;;1.97;;
10110;SDS011;5095;49.796;9.934;2022-10-23T16:18:17;2.10;;;1.63;;
10110;SDS011;5095;49.796;9.934;2022-10-23T16:20:43;3.63;;;1.40;;
10110;SDS011;5095;49.796;9.934;2022-10-23T16:23:09;2.27;;;1.83;;
10110;SDS011;5095;49.796;9.934;2022-10-23T16:25:38;2.43;;;1.50;;
10110;SDS011;5095;49.796;9.934;2022-10-23T16:28:04;1.90;;;1.63;;
10110;SDS011;5095;49.796;9.934;2022-10-23T16:30:30;2.10;;;1.90;;
10110;SDS011;5095;49.796;9.934;2022-10-23T16:32:56;3.57;;;1.90;;
10110;SDS011;5095;49.796;9.934;2022-10-23T16:35:22;1.87;;;1.70;;
10110;SDS011;5095;49.796;9.934;2022-10-23T16:37:48;1.93;;;1.60;;
10110;SDS011;5095;49.796;9.934;2022-10-23T16:40:14;2.53;;;2.10;;
10110;SDS011;5095;49.796;9.934;2022-10-23T16:42:40;4.40;;;2.00;;
10110;SDS011;5095;49.796;9.934;2022-10-23T16:45:07;2.57;;;1.83;;
10110;SDS011;5095;49.796;9.934;2022-10-23T16:47:34;2.20;;;1.53;;
10110;SDS011;5095;49.796;9.934;2022-10-23T16:50:00;2.03;;;1.70;;
10110;SDS011;5095;49.796;9.934;2022-10-23T16:52:27;1.87;;;1.60;;
10110;SDS011;5095;49.796;9.934;2022-10-23T16:54:53;2.63;;;1.90;;
10110;SDS011;5095;49.796;9.934;2022-10-23T16:57:19;2.33;;;2.03;;
10110;SDS011;5095;49.796;9.934;2022-10-23T16:59:45;2.53;;;1.87;;